CDT,Max TemperatureF,Mean TemperatureF,Min TemperatureF,Max Dew PointF,MeanDew PointF,Min DewpointF,Max Humidity, Mean Humidity, Min Humidity, Max Sea Level PressureIn, Mean Sea Level PressureIn, Min Sea Level PressureIn, Max VisibilityMiles, Mean VisibilityMiles, Min VisibilityMiles, Max Wind SpeedMPH, Mean Wind SpeedMPH, Max Gust SpeedMPH,PrecipitationIn, CloudCover, Events, WindDirDegrees
2013-6-1,76,65,54,59,50,45,84,64,44,30.07,29.93,29.74,,,,30,13,39,0.01,,,347
2013-6-2,75,62,48,49,47,42,93,63,33,30.17,30.07,29.98,,,,16,7,21,0.00,,,34
2013-6-3,90,72,53,59,54,48,93,65,37,29.99,29.85,29.69,,,,40,14,56,0.00,,,158
2013-6-4,84,74,64,68,62,53,90,70,49,29.89,29.80,29.68,,,,29,10,35,0.04,,,149
2013-6-5,72,64,56,67,60,54,100,83,66,30.02,29.94,29.82,,,,30,12,39,0.51,,,15
2013-6-6,79,67,54,55,52,47,93,63,33,30.04,30.00,29.94,,,,17,7,23,0.00,,,6
2013-6-7,82,67,52,56,53,50,93,64,34,30.01,29.95,29.86,,,,15,5,18,0.00,,,143
2013-6-8,86,74,62,63,57,53,93,65,37,29.86,29.77,29.65,,,,29,13,39,0.44,,,164
2013-6-9,88,73,57,61,56,51,100,65,29,29.91,29.85,29.78,,,,17,6,23,0.00,,,312
2013-6-10,99,80,61,64,61,59,90,60,29,29.85,29.79,29.71,,,,20,9,25,0.00,,,178
2013-6-11,98,82,66,64,57,54,62,44,25,29.83,29.77,29.70,,,,29,14,38,0.00,,,181
2013-6-12,102,87,71,67,64,58,79,52,24,29.90,29.81,29.75,,,,16,8,21,0.00,,,192
2013-6-13,95,80,64,68,61,55,73,54,34,30.04,29.95,29.84,,,,22,9,28,0.00,,,96
2013-6-14,99,84,69,69,62,53,90,56,22,29.93,29.87,29.79,,,,26,12,33,0.00,,,173
2013-6-15,93,83,72,65,61,56,73,52,30,29.96,29.87,29.79,,,,28,10,40,0.00,,,176
2013-6-16,94,79,64,68,60,56,93,61,28,30.04,29.90,29.81,,,,37,7,47,0.60,,,179
2013-6-17,87,76,64,64,63,60,93,69,44,30.02,29.93,29.83,,,,23,10,29,0.08,,,24
2013-6-18,90,76,62,67,60,50,100,64,28,30.04,29.97,29.88,,,,18,4,25,0.00,,,140
2013-6-19,87,77,67,67,63,61,81,61,40,29.98,29.90,29.83,,,,21,11,27,0.00,,,148
2013-6-20,97,84,70,69,66,60,97,64,30,29.88,29.83,29.75,,,,32,16,42,0.00,,,167
2013-6-21,98,86,74,68,65,60,79,55,30,29.87,29.83,29.78,,,,31,16,39,0.00,,,174
2013-6-22,96,85,74,66,61,54,69,48,26,29.88,29.80,29.73,,,,32,17,43,0.00,,,170
2013-6-23,97,86,74,65,62,55,73,50,27,29.80,29.76,29.71,,,,26,15,38,0.00,,,166
2013-6-24,97,86,74,66,63,58,69,48,27,29.85,29.79,29.71,,,,30,15,41,0.00,,,163
2013-6-25,101,88,74,69,64,58,73,49,24,29.77,29.70,29.61,,,,29,15,39,0.00,,,172
2013-6-26,105,89,73,71,66,62,79,53,27,29.87,29.78,29.71,,,,15,8,22,0.00,,,131
2013-6-27,109,89,68,71,67,58,87,54,21,30.00,29.87,29.72,,,,44,9,57,0.52,,,168
2013-6-28,98,84,70,69,63,57,93,60,27,30.06,29.95,29.88,,,,18,8,23,0.00,,,6
2013-6-29,92,79,66,65,57,49,84,56,28,30.01,29.93,29.85,,,,21,9,26,0.02,,,351
2013-6-30,86,72,58,55,51,47,86,58,29,30.07,30.00,29.95,,,,22,10,29,0.00,,,15